Aérodrome :
LOGIN :

S'inscrire | Disclaimer

   EN    FR    IT 

 










Légende :    VFR   VFR Marginal   IFR   IFR Intensif   IFR Très Intensif
Visi : 
Plafond : 
>= 8 km
>= 3000ft
5 à 8 km
1000 à 3000 ft
1500m à 5 km
500 à 1000 ft
800 à 1500m
200 à 500 ft
< 800m
< 200 ft
Symboles :   Orages  Brouillard  Fortes neiges  Fortes précipitations  Vent > 20 kt
SIGMETs :   Divers  Orages  Givrage  Turbulence  Onde Orograph.  Cendres Volcan.







- Altitude de l'aérodrome : 32 ft
- Code IATA : LKZ


EGUL - RAF Lakenheath

DERNIER METAR :
  • 261658Z AUTO 02010KT 9999 FEW019 SCT095 07/06 A3006 RMK AO2 PK WND 02026/19 RAB32E44 SLP183 P0000 T00670055

METARs EXPIRÉS :
  • 261644Z AUTO 36010KT 9999 FEW019 SCT060 06/05 A3006 RMK AO2 RAB32E44
  • 261632Z AUTO 34017G25KT 9999 -RA FEW018 SCT046 BKN060 06/05 A3006 RMK AO2 RAB32
  • 261558Z AUTO 01009KT 9999 FEW018 SCT055 08/07 A3005 RMK AO2 RAB1459E10RAB28E38 SLP179 P0000 T00760069
  • 261538Z AUTO 36017G20KT 9999 FEW018 SCT050 07/06 A3005 RMK AO2 RAB1459E10RAB28E38
  • 261510Z AUTO 03012KT 9999 FEW028 SCT033 07/06 A3005 RMK AO2 RAB1459E10

TAF TAF EGUL
Valide du 26 à 12h jusqu'au 27 à 18h UTC


261206Z 2612/2718 02012G18KT 9000 -SHRA BKN025 610309 QNH2997INS
TEMPO 2612/2618 35015G20KT 8000 -TSRAGS BKN020CB
BECMG 2617/2618 34009KT 9999 NSW BKN060 QNH3006INS
BECMG 2700/2701 33009KT 5000 BR SCT060 QNH3003INS
BECMG 2708/2709 29009KT 9000 -SHRA BKN025 620508 QNH3000INS
BECMG 2711/2712 27015G20KT 9000 -SHRA BKN015 620309 QNH2997INS TX10/2712Z TN02/2705Z
Pas de NOTAMs connus pour ce terrain.



MET'MAP, la Météo Aéronautique d'un coup d'oeil ! - Copyright ORBIFLY Décembre 2007 - Disclaimer

ORBIFLY MET'MAP TEAM :

Programmation & Développement : Alexandra Zaïnal
Conception & Développement : Baudouin d'Aumeries
Co-Programmation & Développement : Marc-Olivier Méhu
Soutien technique & logistique : Manuel Goepfert

Contact : metmap@orbifly.com




SOURCES & CREDITS :

   NOAA